Time;durP1;ratioP1;P1;durP2;ratioP2;P2;SDS_P1;SDS_P2;PMS_P1;PMS_P2;Temp;Humidity;BMP_temperature;BMP_pressure;BME280_temperature;BME280_humidity;BME280_pressure;Samples;Min_cycle;Max_cycle;Signal;HPM_P1;HPM_P2
2022/02/28 00:01:33;;;;;;;8.30;5.32;;;-0.50;99.90;;;;;;5049406;28;20052;-78
2022/02/28 00:03:59;;;;;;;9.13;5.00;;;-0.50;99.90;;;;;;5016895;28;20064;-78
2022/02/28 00:06:25;;;;;;;9.35;4.45;;;1.50;99.90;;;;;;5050241;28;20069;-78
2022/02/28 00:08:51;;;;;;;9.07;4.88;;;1.30;99.90;;;;;;5047146;28;20045;-78
2022/02/28 00:11:16;;;;;;;8.38;5.28;;;-0.50;99.90;;;;;;5048844;28;20033;-79
2022/02/28 00:13:42;;;;;;;10.30;4.80;;;-0.50;99.90;;;;;;5048358;28;20044;-78
2022/02/28 00:16:08;;;;;;;8.35;4.85;;;0.40;99.90;;;;;;5049122;28;20025;-77
2022/02/28 00:18:34;;;;;;;6.65;4.63;;;-0.30;99.90;;;;;;5047372;28;20165;-79
2022/02/28 00:21:00;;;;;;;8.82;5.05;;;-0.30;99.90;;;;;;5050589;28;20101;-78
2022/02/28 00:23:26;;;;;;;8.90;5.18;;;-0.40;99.90;;;;;;5050422;28;20045;-79
2022/02/28 00:25:52;;;;;;;9.75;4.88;;;-0.60;99.90;;;;;;5048915;28;20524;-79
2022/02/28 00:28:18;;;;;;;8.57;5.10;;;-0.50;99.90;;;;;;5049561;28;20029;-79
2022/02/28 00:30:44;;;;;;;8.45;4.95;;;-0.70;99.90;;;;;;5047671;28;20049;-79
2022/02/28 00:33:10;;;;;;;7.70;5.15;;;-0.80;99.90;;;;;;5028643;28;20037;-78
2022/02/28 00:35:36;;;;;;;7.43;5.07;;;-1.00;99.90;;;;;;5045786;28;20045;-78
2022/02/28 00:38:02;;;;;;;10.20;5.60;;;-1.10;99.90;;;;;;5045712;28;20096;-79
2022/02/28 00:40:28;;;;;;;8.88;4.97;;;-1.30;99.90;;;;;;5044121;28;20030;-79
2022/02/28 00:42:54;;;;;;;9.43;5.28;;;-0.80;99.90;;;;;;5044967;28;20037;-78
2022/02/28 00:45:19;;;;;;;11.13;5.80;;;-1.30;99.90;;;;;;5027973;28;20107;-78
2022/02/28 00:47:45;;;;;;;12.07;5.82;;;-1.40;99.90;;;;;;5046168;28;20124;-78
2022/02/28 00:50:12;;;;;;;9.45;5.65;;;-1.50;99.90;;;;;;5045431;28;20034;-78
2022/02/28 00:52:39;;;;;;;9.55;6.13;;;-1.40;99.90;;;;;;5045908;28;20068;-79
2022/02/28 00:55:06;;;;;;;9.95;5.72;;;-1.50;99.90;;;;;;5045041;28;20038;-78
2022/02/28 00:57:32;;;;;;;9.98;6.20;;;-1.30;99.90;;;;;;5045971;28;20041;-78
2022/02/28 00:59:58;;;;;;;12.93;5.60;;;-1.40;99.90;;;;;;5044443;28;20506;-78
2022/02/28 01:02:24;;;;;;;14.68;6.30;;;-1.10;99.90;;;;;;5042800;28;20055;-78
2022/02/28 01:04:50;;;;;;;11.73;5.90;;;-0.90;99.90;;;;;;5024454;28;20021;-79
2022/02/28 01:07:16;;;;;;;8.70;5.75;;;0.80;99.90;;;;;;5041760;28;20104;-78
2022/02/28 01:09:42;;;;;;;12.02;5.78;;;-0.40;99.90;;;;;;5040399;28;20477;-78
2022/02/28 01:12:08;;;;;;;13.15;6.10;;;-0.20;99.90;;;;;;5040632;28;20381;-79
2022/02/28 01:14:35;;;;;;;12.07;5.93;;;-0.20;99.90;;;;;;5022220;28;20044;-78
2022/02/28 01:17:01;;;;;;;9.13;5.25;;;-0.10;99.90;;;;;;5038839;28;20436;-78
2022/02/28 01:19:27;;;;;;;9.30;5.38;;;1.30;99.90;;;;;;5019075;28;20025;-78
2022/02/28 01:21:53;;;;;;;9.95;5.30;;;0.30;99.90;;;;;;5036432;28;20040;-77
2022/02/28 01:24:18;;;;;;;11.35;5.95;;;0.40;99.90;;;;;;5036186;28;20124;-79
2022/02/28 01:26:45;;;;;;;7.70;4.80;;;0.40;99.90;;;;;;5034871;28;20033;-78
2022/02/28 01:29:11;;;;;;;10.95;5.53;;;0.70;99.90;;;;;;5034770;28;20078;-78
2022/02/28 01:31:37;;;;;;;11.70;5.07;;;0.80;99.90;;;;;;5021486;28;20374;-78
2022/02/28 01:34:03;;;;;;;8.85;4.78;;;1.00;99.90;;;;;;5020900;28;20040;-78
2022/02/28 01:36:29;;;;;;;11.05;4.82;;;1.10;99.90;;;;;;5035344;28;20029;-78
2022/02/28 01:38:55;;;;;;;8.65;4.78;;;0.90;99.90;;;;;;5035156;28;20020;-78
2022/02/28 01:41:20;;;;;;;9.75;4.93;;;1.00;99.90;;;;;;5018537;28;20093;-77
2022/02/28 01:43:46;;;;;;;11.57;4.72;;;1.30;99.90;;;;;;5036354;28;20489;-78
2022/02/28 01:46:12;;;;;;;8.98;4.97;;;0.90;99.90;;;;;;5017675;28;20800;-77
2022/02/28 01:48:38;;;;;;;14.70;5.35;;;0.70;99.90;;;;;;5033922;28;20034;-77
2022/02/28 01:51:03;;;;;;;7.45;4.95;;;0.50;99.90;;;;;;5034059;28;20448;-77
2022/02/28 01:53:29;;;;;;;12.20;4.95;;;0.50;99.90;;;;;;5016572;28;20029;-78
2022/02/28 01:55:55;;;;;;;9.88;4.95;;;0.40;99.90;;;;;;5033815;28;20034;-77
2022/02/28 01:58:20;;;;;;;12.27;5.45;;;0.40;99.90;;;;;;5033107;28;20116;-77
2022/02/28 02:00:46;;;;;;;10.60;5.07;;;0.40;99.90;;;;;;5032265;28;20079;-78
2022/02/28 02:03:12;;;;;;;9.73;4.95;;;0.30;99.90;;;;;;5014035;28;20512;-77
2022/02/28 02:05:37;;;;;;;8.02;4.82;;;0.20;99.90;;;;;;5031407;28;20064;-77
2022/02/28 02:08:07;;;;;;;11.80;4.90;;;0.00;99.90;;;;;;5031494;28;20120;-77
2022/02/28 02:10:34;;;;;;;8.38;5.00;;;0.00;99.90;;;;;;5030276;28;20032;-77
2022/02/28 02:13:00;;;;;;;9.57;5.15;;;-0.10;99.90;;;;;;5030808;28;20108;-77
2022/02/28 02:15:26;;;;;;;9.90;5.88;;;-0.20;99.90;;;;;;5031151;28;20033;-77
2022/02/28 02:17:54;;;;;;;11.40;6.32;;;-0.40;99.90;;;;;;5030725;28;20099;-77
2022/02/28 02:20:19;;;;;;;8.55;5.60;;;-0.60;99.90;;;;;;5012557;28;20083;-77
2022/02/28 02:23:14;;;;;;;9.10;5.55;;;-0.40;99.90;;;;;;5030385;28;20025;-78
2022/02/28 02:25:41;;;;;;;10.27;5.70;;;-0.40;99.90;;;;;;4986408;28;20432;-77
2022/02/28 02:28:08;;;;;;;9.35;5.60;;;-0.80;99.90;;;;;;5011915;28;20080;-77
2022/02/28 02:30:35;;;;;;;9.80;5.53;;;-1.20;99.90;;;;;;5026855;28;20087;-77
2022/02/28 02:33:01;;;;;;;10.77;5.93;;;-1.30;99.90;;;;;;5013489;28;20339;-77
2022/02/28 02:35:27;;;;;;;13.00;6.65;;;-1.40;99.90;;;;;;5013212;28;20021;-77
2022/02/28 02:37:53;;;;;;;11.07;6.10;;;-1.20;99.90;;;;;;5012945;28;20549;-76
2022/02/28 02:40:19;;;;;;;13.40;6.28;;;-1.20;99.90;;;;;;5030264;28;20025;-76
2022/02/28 02:42:44;;;;;;;9.80;5.38;;;-1.20;99.90;;;;;;5013446;28;20052;-77
2022/02/28 02:45:10;;;;;;;9.43;5.88;;;-1.40;99.90;;;;;;5012991;28;20030;-76
2022/02/28 02:47:36;;;;;;;12.23;6.43;;;-1.40;99.90;;;;;;5030463;28;20021;-76
2022/02/28 02:50:06;;;;;;;10.27;5.85;;;-1.40;99.90;;;;;;5012233;28;20057;-77
2022/02/28 02:52:32;;;;;;;12.57;6.78;;;-1.30;99.90;;;;;;5030823;28;20021;-77
2022/02/28 02:54:58;;;;;;;10.18;5.97;;;-0.90;99.90;;;;;;5030552;28;20413;-77
2022/02/28 02:57:23;;;;;;;10.98;6.00;;;-0.70;99.90;;;;;;5029440;28;20032;-77
2022/02/28 02:59:50;;;;;;;10.57;5.65;;;-0.70;99.90;;;;;;5028853;28;20033;-77
2022/02/28 03:02:16;;;;;;;11.52;5.85;;;-0.80;99.90;;;;;;5030581;28;20029;-77
2022/02/28 03:04:41;;;;;;;10.25;5.75;;;-0.90;99.90;;;;;;5030587;28;20068;-77
2022/02/28 03:07:15;;;;;;;8.50;5.47;;;-0.70;99.90;;;;;;5030681;28;20021;-77
2022/02/28 03:09:42;;;;;;;10.45;5.78;;;-0.80;99.90;;;;;;5029763;28;20527;-76
2022/02/28 03:12:08;;;;;;;11.32;5.82;;;-0.70;99.90;;;;;;5030007;28;20045;-77
2022/02/28 03:14:33;;;;;;;10.02;5.50;;;-0.80;99.90;;;;;;5013012;28;20036;-77
2022/02/28 03:16:59;;;;;;;13.50;5.95;;;-0.90;99.90;;;;;;5031431;28;20034;-76
2022/02/28 03:19:24;;;;;;;9.77;5.70;;;-0.90;99.90;;;;;;5015895;28;20029;-77
2022/02/28 03:21:50;;;;;;;9.45;5.20;;;-1.10;99.90;;;;;;5017287;28;20030;-77
2022/02/28 03:24:15;;;;;;;10.35;6.03;;;-1.00;99.90;;;;;;5035074;28;20343;-77
2022/02/28 03:26:41;;;;;;;11.57;5.88;;;-1.10;99.90;;;;;;5034353;28;20033;-77
2022/02/28 03:29:07;;;;;;;12.43;6.18;;;-0.90;99.90;;;;;;5033525;28;20504;-76
2022/02/28 03:31:32;;;;;;;9.68;5.28;;;-1.10;99.90;;;;;;5033796;28;20033;-76
2022/02/28 03:33:58;;;;;;;8.18;5.10;;;-1.10;99.90;;;;;;5034715;28;20022;-76
2022/02/28 03:36:23;;;;;;;11.07;6.20;;;-1.00;99.90;;;;;;5016132;28;20032;-76
2022/02/28 03:38:49;;;;;;;11.52;6.28;;;-1.20;99.90;;;;;;5033280;28;20029;-76
2022/02/28 03:41:14;;;;;;;11.18;6.55;;;-1.30;99.90;;;;;;5033490;28;20493;-76
2022/02/28 03:43:40;;;;;;;11.00;6.65;;;-1.30;99.90;;;;;;5016091;28;20037;-76
2022/02/28 03:46:06;;;;;;;13.10;6.80;;;0.60;99.90;;;;;;5033651;28;20044;-76
2022/02/28 03:48:31;;;;;;;10.48;6.15;;;-1.40;99.90;;;;;;5032795;28;20493;-76
2022/02/28 03:50:57;;;;;;;10.20;5.72;;;-1.60;99.90;;;;;;5033482;28;20490;-75
2022/02/28 03:53:22;;;;;;;24.13;10.80;;;-1.70;99.90;;;;;;5015783;28;20474;-75
2022/02/28 03:55:48;;;;;;;21.80;9.90;;;-0.20;99.90;;;;;;5033650;28;20116;-75
2022/02/28 03:58:14;;;;;;;13.77;6.97;;;-2.10;99.90;;;;;;5015904;28;20405;-75
2022/02/28 04:00:39;;;;;;;12.40;6.93;;;-2.00;99.90;;;;;;5031749;28;20091;-75
2022/02/28 04:03:05;;;;;;;11.55;5.97;;;-2.10;99.90;;;;;;5015195;28;20704;-76
2022/02/28 04:05:30;;;;;;;11.95;6.45;;;-2.10;99.90;;;;;;5033428;28;20042;-75
2022/02/28 04:07:56;;;;;;;12.82;7.63;;;-2.30;99.90;;;;;;5033271;28;20041;-75
2022/02/28 04:10:22;;;;;;;13.35;7.47;;;-2.30;99.90;;;;;;5032434;28;20091;-75
2022/02/28 04:12:47;;;;;;;14.10;6.70;;;-2.50;99.90;;;;;;4998846;28;20048;-75
2022/02/28 04:15:13;;;;;;;13.15;7.07;;;-2.60;99.90;;;;;;5033106;28;20021;-75
2022/02/28 04:17:39;;;;;;;13.10;7.43;;;-2.80;99.90;;;;;;5014854;28;20583;-75
2022/02/28 04:20:05;;;;;;;14.00;7.80;;;-2.90;99.90;;;;;;5032121;28;20117;-75
2022/02/28 04:22:32;;;;;;;14.55;6.40;;;-2.80;99.90;;;;;;5032704;28;20079;-74
2022/02/28 04:24:57;;;;;;;14.40;7.93;;;-3.00;99.90;;;;;;5032929;28;20033;-75
2022/02/28 04:27:23;;;;;;;13.50;7.82;;;-2.90;99.90;;;;;;5032442;28;20035;-76
2022/02/28 04:29:49;;;;;;;13.27;7.32;;;-2.90;99.90;;;;;;5024017;28;20141;-75
2022/02/28 04:32:14;;;;;;;16.15;8.02;;;-2.90;99.90;;;;;;5012776;28;20026;-75
2022/02/28 04:34:41;;;;;;;14.00;8.60;;;-2.90;99.90;;;;;;5012927;28;20163;-75
2022/02/28 04:37:06;;;;;;;17.23;9.15;;;-2.90;99.90;;;;;;5013164;28;20475;-75
2022/02/28 04:39:32;;;;;;;15.10;8.27;;;-3.10;99.90;;;;;;5014377;28;20034;-75
2022/02/28 04:41:58;;;;;;;13.48;8.40;;;-3.10;99.90;;;;;;5032707;28;20111;-76
2022/02/28 04:44:23;;;;;;;17.23;8.85;;;-3.10;99.90;;;;;;5033056;28;20025;-74
2022/02/28 04:46:49;;;;;;;13.35;8.18;;;-3.00;99.90;;;;;;5014694;28;20029;-75
2022/02/28 04:49:14;;;;;;;17.52;9.63;;;-2.70;99.90;;;;;;5032015;28;20037;-75
2022/02/28 04:51:40;;;;;;;18.00;9.50;;;-2.50;99.90;;;;;;5032494;28;20104;-76
2022/02/28 04:54:06;;;;;;;16.27;9.05;;;-2.40;99.90;;;;;;5032505;28;20036;-75
2022/02/28 04:56:31;;;;;;;14.18;8.00;;;-2.30;99.90;;;;;;5014432;28;20025;-75
2022/02/28 04:58:57;;;;;;;13.82;8.48;;;-2.10;99.90;;;;;;5014169;28;20030;-75
2022/02/28 05:01:23;;;;;;;12.57;7.50;;;-2.10;99.90;;;;;;5014633;28;20037;-75
2022/02/28 05:03:48;;;;;;;12.85;6.97;;;-2.00;99.90;;;;;;5032054;28;20367;-75
2022/02/28 05:06:14;;;;;;;12.93;7.57;;;-2.00;99.90;;;;;;5032302;28;20040;-76
2022/02/28 05:08:40;;;;;;;14.02;7.38;;;-2.00;99.90;;;;;;5031626;28;20103;-75
2022/02/28 05:11:05;;;;;;;13.73;7.68;;;-1.90;99.90;;;;;;5032386;28;20037;-75
2022/02/28 05:13:31;;;;;;;13.43;7.57;;;-2.00;99.90;;;;;;4994476;23;20039;-75
2022/02/28 05:15:57;;;;;;;13.52;7.70;;;-1.90;99.90;;;;;;4970266;28;20023;-74
2022/02/28 05:18:23;;;;;;;10.88;6.57;;;0.40;99.90;;;;;;5037582;28;20438;-74
2022/02/28 05:20:48;;;;;;;13.80;7.10;;;-2.10;99.90;;;;;;4952932;28;20031;-75
2022/02/28 05:23:14;;;;;;;16.52;7.78;;;-1.90;99.90;;;;;;4969822;28;20026;-75
2022/02/28 05:25:40;;;;;;;15.38;7.10;;;-1.90;99.90;;;;;;4971394;28;20033;-75
2022/02/28 05:28:05;;;;;;;13.50;7.63;;;-2.00;99.90;;;;;;4970926;28;20031;-75
2022/02/28 05:30:31;;;;;;;11.48;6.90;;;-2.00;99.90;;;;;;4970100;28;20399;-75
2022/02/28 05:32:57;;;;;;;16.98;7.88;;;-2.10;99.90;;;;;;4970801;28;20050;-75
2022/02/28 05:35:22;;;;;;;13.68;8.00;;;-1.90;99.90;;;;;;4971422;28;20475;-74
2022/02/28 05:37:48;;;;;;;12.85;7.38;;;-2.00;99.90;;;;;;4954819;28;20043;-75
2022/02/28 05:40:15;;;;;;;11.73;7.05;;;-2.00;99.90;;;;;;4952905;28;20503;-74
2022/02/28 05:42:40;;;;;;;13.35;7.53;;;-2.10;99.90;;;;;;4971009;28;20034;-75
2022/02/28 05:45:07;;;;;;;12.68;7.57;;;-2.20;99.90;;;;;;4971163;28;20026;-75
2022/02/28 05:47:33;;;;;;;13.50;7.88;;;-2.20;99.90;;;;;;4971136;28;20054;-75
2022/02/28 05:49:58;;;;;;;12.50;8.07;;;-2.30;99.90;;;;;;4971350;28;20499;-75
2022/02/28 05:52:24;;;;;;;11.15;7.57;;;-2.40;99.90;;;;;;4953927;28;20062;-75
2022/02/28 05:54:50;;;;;;;14.75;7.40;;;-0.40;99.90;;;;;;4971050;28;20035;-74
2022/02/28 05:57:16;;;;;;;13.93;8.63;;;-2.40;99.90;;;;;;4970959;28;20019;-74
2022/02/28 05:59:41;;;;;;;13.68;8.02;;;-2.40;99.90;;;;;;4970045;28;20031;-74
2022/02/28 06:02:07;;;;;;;15.38;8.63;;;-2.40;99.90;;;;;;4970935;28;20101;-75
2022/02/28 06:04:33;;;;;;;15.48;7.90;;;-2.30;99.90;;;;;;4953522;28;20030;-75
2022/02/28 06:06:58;;;;;;;16.38;7.95;;;-2.30;99.90;;;;;;4970675;28;20035;-75
2022/02/28 06:09:24;;;;;;;15.45;8.13;;;-2.30;99.90;;;;;;4969861;28;20505;-74
2022/02/28 06:11:50;;;;;;;12.13;8.18;;;-2.20;99.90;;;;;;4967310;28;20402;-75
2022/02/28 06:14:16;;;;;;;15.50;8.35;;;-2.30;99.90;;;;;;4970917;28;20026;-75
2022/02/28 06:16:42;;;;;;;17.48;9.40;;;-2.10;99.90;;;;;;4953247;28;20050;-75
2022/02/28 06:19:07;;;;;;;16.23;8.65;;;-2.10;99.90;;;;;;4970338;28;20027;-75
2022/02/28 06:21:33;;;;;;;14.70;9.07;;;-2.00;99.90;;;;;;4953792;28;20120;-75
2022/02/28 06:23:59;;;;;;;14.88;8.73;;;-2.00;99.90;;;;;;4970450;28;20153;-75
2022/02/28 06:26:24;;;;;;;17.98;8.65;;;-1.90;99.90;;;;;;4954361;28;20510;-76
2022/02/28 06:28:50;;;;;;;14.13;8.50;;;-2.00;99.90;;;;;;4953385;28;20496;-76
2022/02/28 06:31:15;;;;;;;17.15;8.98;;;-2.00;99.90;;;;;;4974297;28;20034;-76
2022/02/28 06:33:41;;;;;;;15.68;8.23;;;-1.90;99.90;;;;;;4971924;28;20035;-76
2022/02/28 06:36:06;;;;;;;17.15;9.70;;;-1.80;99.90;;;;;;4971138;28;20076;-76
2022/02/28 06:38:33;;;;;;;15.98;9.00;;;-1.90;99.90;;;;;;4969313;28;20027;-75
2022/02/28 06:40:58;;;;;;;12.85;7.82;;;-0.40;99.90;;;;;;4970425;28;20034;-76
2022/02/28 06:43:27;;;;;;;14.65;7.70;;;-1.40;99.90;;;;;;4971690;29;20020;-76
2022/02/28 06:45:54;;;;;;;19.30;8.07;;;-0.40;99.90;;;;;;4961361;29;20069;-75
2022/02/28 06:48:20;;;;;;;12.45;7.55;;;-1.10;99.90;;;;;;4963043;28;20031;-76
2022/02/28 06:50:46;;;;;;;13.77;8.15;;;-0.90;99.90;;;;;;4952957;28;20114;-76
2022/02/28 06:53:18;;;;;;;19.50;11.13;;;-0.90;99.90;;;;;;4973597;28;20403;-76
2022/02/28 06:55:45;;;;;;;12.57;7.43;;;-0.80;99.90;;;;;;4973679;28;20023;-76
2022/02/28 06:58:11;;;;;;;12.57;7.15;;;-0.70;99.90;;;;;;4956809;28;20483;-77
2022/02/28 07:00:37;;;;;;;14.40;7.47;;;-0.70;99.90;;;;;;4973159;28;20038;-76
2022/02/28 07:03:03;;;;;;;14.40;7.60;;;-0.70;99.90;;;;;;4973229;28;20057;-77
2022/02/28 07:05:29;;;;;;;10.90;6.60;;;-0.50;99.90;;;;;;4951371;28;20051;-76
2022/02/28 07:07:55;;;;;;;12.65;8.18;;;0.50;99.90;;;;;;4926507;28;20123;-76
2022/02/28 07:10:22;;;;;;;14.13;7.53;;;-0.40;99.90;;;;;;4950515;28;20031;-76
2022/02/28 07:12:48;;;;;;;13.90;7.60;;;-0.30;99.90;;;;;;4965913;28;20584;-77
2022/02/28 07:15:14;;;;;;;11.55;7.07;;;-0.20;99.90;;;;;;4974078;28;20483;-76
2022/02/28 07:17:40;;;;;;;14.27;6.97;;;-0.40;99.90;;;;;;4973395;28;20023;-77
2022/02/28 07:20:06;;;;;;;11.70;7.05;;;-0.30;99.90;;;;;;4972150;28;20506;-77
2022/02/28 07:22:32;;;;;;;12.93;7.15;;;-0.30;99.90;;;;;;4939626;28;20406;-77
2022/02/28 07:24:57;;;;;;;13.80;7.93;;;0.00;99.90;;;;;;4970282;28;20031;-76
2022/02/28 07:27:23;;;;;;;12.13;7.03;;;-0.10;99.90;;;;;;4968973;28;20031;-78
2022/02/28 07:29:48;;;;;;;12.90;8.00;;;-0.10;99.90;;;;;;4968103;28;20035;-77
2022/02/28 07:32:14;;;;;;;15.60;8.15;;;0.10;99.90;;;;;;4947366;28;20603;-77
2022/02/28 07:34:40;;;;;;;13.05;8.18;;;1.10;99.90;;;;;;4964712;28;20533;-77
2022/02/28 07:37:05;;;;;;;14.98;9.18;;;0.40;99.90;;;;;;4965464;28;20035;-77
2022/02/28 07:39:32;;;;;;;11.77;6.82;;;0.70;99.90;;;;;;4964103;28;20039;-77
2022/02/28 07:42:00;;;;;;;12.65;7.78;;;0.90;99.90;;;;;;4946463;28;20031;-77
2022/02/28 07:44:25;;;;;;;13.32;7.18;;;1.00;99.90;;;;;;4967535;28;20023;-77
2022/02/28 07:46:51;;;;;;;16.67;7.70;;;1.20;99.90;;;;;;4975162;28;20368;-77
2022/02/28 07:49:17;;;;;;;11.85;7.45;;;1.20;99.90;;;;;;4973974;28;20041;-77
2022/02/28 07:51:42;;;;;;;13.38;8.15;;;1.20;99.90;;;;;;4969225;28;20034;-77
2022/02/28 07:54:08;;;;;;;16.38;8.70;;;1.20;99.90;;;;;;4936326;28;20046;-77
2022/02/28 07:56:34;;;;;;;12.40;7.45;;;1.60;99.90;;;;;;4948343;28;20049;-77
2022/02/28 07:58:59;;;;;;;13.32;7.57;;;1.60;99.90;;;;;;4965571;28;20023;-77
2022/02/28 08:01:25;;;;;;;16.35;8.65;;;1.70;99.90;;;;;;4947457;28;20494;-77
2022/02/28 08:03:51;;;;;;;15.85;9.18;;;2.90;99.90;;;;;;4964076;28;20045;-78
2022/02/28 08:06:16;;;;;;;12.00;7.53;;;1.90;99.90;;;;;;4966712;28;20058;-79
2022/02/28 08:08:42;;;;;;;11.98;7.63;;;2.20;99.90;;;;;;4935711;28;20039;-78
2022/02/28 08:11:08;;;;;;;11.77;6.82;;;2.20;99.90;;;;;;4955143;28;20034;-78
2022/02/28 08:13:34;;;;;;;14.38;8.80;;;2.10;99.90;;;;;;4953182;28;20454;-80
2022/02/28 08:16:01;;;;;;;13.88;7.40;;;2.50;99.90;;;;;;4939142;28;20035;-80
2022/02/28 08:18:26;;;;;;;12.82;7.63;;;4.50;99.90;;;;;;4939878;28;20046;-80
2022/02/28 08:20:52;;;;;;;11.35;7.05;;;1.40;99.90;;;;;;4956463;28;20027;-77
2022/02/28 08:23:18;;;;;;;18.23;7.90;;;2.80;99.90;;;;;;4939045;28;20038;-79
2022/02/28 08:25:45;;;;;;;11.98;6.88;;;2.70;99.90;;;;;;4941331;28;20414;-79
2022/02/28 08:28:11;;;;;;;13.05;7.22;;;2.80;99.90;;;;;;4956973;28;20031;-78
2022/02/28 08:30:37;;;;;;;11.32;6.68;;;2.80;99.90;;;;;;4959470;28;20045;-77
2022/02/28 08:33:03;;;;;;;10.73;6.60;;;3.10;99.90;;;;;;4970396;28;20507;-77
2022/02/28 08:35:29;;;;;;;11.80;7.07;;;3.40;99.90;;;;;;4972041;28;20026;-77
2022/02/28 08:37:54;;;;;;;15.55;7.20;;;3.40;99.90;;;;;;4954755;28;20063;-76
2022/02/28 08:40:20;;;;;;;11.20;7.20;;;3.80;99.90;;;;;;4952777;28;20026;-76
2022/02/28 08:42:46;;;;;;;16.63;8.57;;;4.00;99.90;;;;;;4960474;28;20488;-77
2022/02/28 08:45:12;;;;;;;15.50;7.93;;;4.00;99.90;;;;;;4969829;28;20566;-77
2022/02/28 08:47:37;;;;;;;14.35;7.85;;;4.70;99.90;;;;;;4954349;28;20027;-77
2022/02/28 08:50:04;;;;;;;13.15;8.20;;;5.70;99.90;;;;;;4971646;28;20062;-77
2022/02/28 08:52:32;;;;;;;12.48;7.18;;;6.90;99.90;;;;;;4938646;28;20070;-77
2022/02/28 08:55:01;;;;;;;11.25;7.10;;;7.70;98.20;;;;;;4955357;28;20597;-77
2022/02/28 08:57:27;;;;;;;13.05;7.55;;;8.00;95.10;;;;;;4939998;28;20406;-77
2022/02/28 08:59:53;;;;;;;12.02;7.70;;;9.80;92.50;;;;;;4954901;28;20035;-77
2022/02/28 09:02:18;;;;;;;10.80;7.28;;;9.20;89.10;;;;;;4923746;28;20031;-76
2022/02/28 09:04:44;;;;;;;10.52;6.22;;;9.50;84.60;;;;;;4960509;28;20038;-77
2022/02/28 09:07:10;;;;;;;12.68;6.85;;;9.90;83.50;;;;;;4957368;28;20031;-76
2022/02/28 09:09:36;;;;;;;15.18;7.05;;;10.00;79.50;;;;;;4973676;28;20037;-76
2022/02/28 09:12:02;;;;;;;11.25;6.80;;;11.30;78.20;;;;;;4940489;28;20151;-77
2022/02/28 09:14:28;;;;;;;9.85;6.53;;;11.50;75.00;;;;;;4957085;28;20589;-77
2022/02/28 09:16:54;;;;;;;13.93;7.22;;;12.80;72.20;;;;;;4958273;28;20066;-77
2022/02/28 09:19:19;;;;;;;11.25;6.82;;;12.80;66.90;;;;;;4957995;28;20030;-77
2022/02/28 09:21:45;;;;;;;9.27;6.57;;;13.00;65.80;;;;;;4943278;28;20388;-78
2022/02/28 09:24:11;;;;;;;12.10;7.00;;;13.40;64.60;;;;;;4939675;29;20043;-77
2022/02/28 09:26:36;;;;;;;13.90;8.52;;;12.60;64.00;;;;;;4957820;29;20038;-78
2022/02/28 09:29:03;;;;;;;12.32;6.40;;;12.80;63.50;;;;;;4943789;28;20032;-78
2022/02/28 09:31:29;;;;;;;9.80;6.47;;;13.20;63.70;;;;;;4946273;28;20030;-77
2022/02/28 09:33:55;;;;;;;10.65;6.70;;;12.90;61.90;;;;;;4982393;28;20369;-78
2022/02/28 09:36:20;;;;;;;9.23;5.82;;;13.10;61.50;;;;;;4979505;28;20054;-78
2022/02/28 09:38:46;;;;;;;10.90;6.70;;;14.00;62.70;;;;;;4942459;28;20027;-78
2022/02/28 09:41:14;;;;;;;8.93;6.03;;;;;;;;;;4955848;28;20030;-78
2022/02/28 09:43:41;;;;;;;11.50;6.38;;;13.40;61.20;;;;;;4974018;28;20059;-78
2022/02/28 09:46:07;;;;;;;11.27;6.22;;;;;;;;;;4958494;28;20037;-78
2022/02/28 09:48:33;;;;;;;10.52;6.57;;;;;;;;;;4974870;28;20534;-78
2022/02/28 09:51:00;;;;;;;11.30;7.45;;;;;;;;;;4975378;28;20027;-79
2022/02/28 09:53:25;;;;;;;10.70;7.63;;;13.30;59.10;;;;;;4962028;28;20106;-78
2022/02/28 09:55:51;;;;;;;10.60;7.13;;;14.50;57.80;;;;;;4962381;28;20462;-78
2022/02/28 09:58:29;;;;;;;10.57;7.10;;;16.80;58.20;;;;;;4974441;28;20027;-79
2022/02/28 10:00:56;;;;;;;9.98;7.13;;;14.70;56.60;;;;;;4955635;28;20034;-77
2022/02/28 10:03:26;;;;;;;12.48;6.82;;;15.50;55.00;;;;;;4954336;28;20117;-77
2022/02/28 10:06:01;;;;;;;10.27;6.57;;;15.90;51.20;;;;;;4969465;28;20479;-77
2022/02/28 10:08:39;;;;;;;10.43;6.63;;;17.00;53.60;;;;;;4970258;28;20519;-77
2022/02/28 10:11:26;;;;;;;14.73;6.70;;;15.70;51.30;;;;;;4970146;28;20026;-77
2022/02/28 10:13:53;;;;;;;11.90;7.10;;;15.70;52.30;;;;;;4970349;28;20047;-77
2022/02/28 10:16:39;;;;;;;8.98;5.80;;;;;;;;;;4970740;28;20027;-77
2022/02/28 10:19:09;;;;;;;8.40;5.47;;;15.50;52.20;;;;;;4970351;28;20054;-77
2022/02/28 10:21:42;;;;;;;8.40;5.72;;;15.70;52.80;;;;;;4971591;28;20057;-78
2022/02/28 10:24:09;;;;;;;8.68;5.47;;;16.00;51.10;;;;;;4971066;28;20038;-77
2022/02/28 10:26:43;;;;;;;7.85;5.28;;;16.60;50.80;;;;;;4970146;28;20035;-76
2022/02/28 10:29:14;;;;;;;8.60;5.75;;;16.70;50.80;;;;;;4970103;28;20110;-77
2022/02/28 10:31:44;;;;;;;12.27;6.35;;;16.80;50.50;;;;;;4970465;28;20034;-76
2022/02/28 10:34:16;;;;;;;8.43;5.68;;;17.00;50.80;;;;;;4970026;28;20447;-77
2022/02/28 10:37:06;;;;;;;9.20;5.22;;;16.60;49.80;;;;;;4937744;28;20372;-77
2022/02/28 10:39:37;;;;;;;9.85;5.60;;;16.40;49.60;;;;;;4968439;28;20034;-77
2022/02/28 10:42:12;;;;;;;7.97;5.35;;;16.30;47.70;;;;;;4970493;28;20034;-77
2022/02/28 10:44:39;;;;;;;8.07;5.30;;;17.00;46.70;;;;;;4971358;28;20692;-76
2022/02/28 10:47:11;;;;;;;8.35;5.32;;;16.60;48.50;;;;;;4953824;28;20548;-76
2022/02/28 10:49:38;;;;;;;8.02;5.03;;;17.20;48.10;;;;;;4970035;28;20052;-76
2022/02/28 10:52:13;;;;;;;9.30;5.40;;;17.90;47.30;;;;;;4948559;28;20372;-76
2022/02/28 10:54:45;;;;;;;20.88;12.82;;;17.70;46.30;;;;;;4951044;28;20053;-76
2022/02/28 10:57:19;;;;;;;11.13;6.05;;;17.40;47.40;;;;;;4951001;29;20106;-76
2022/02/28 10:59:49;;;;;;;8.48;5.65;;;17.30;47.20;;;;;;4959645;28;20494;-76
2022/02/28 11:02:36;;;;;;;7.38;4.63;;;17.00;47.50;;;;;;4970242;28;20157;-76
2022/02/28 11:05:15;;;;;;;8.52;4.90;;;16.90;47.60;;;;;;4970075;28;20072;-76
2022/02/28 11:07:49;;;;;;;8.88;5.07;;;17.00;45.20;;;;;;4970247;28;20027;-76
2022/02/28 11:10:17;;;;;;;7.82;5.25;;;17.40;46.90;;;;;;4964886;28;20028;-76
2022/02/28 11:12:44;;;;;;;9.43;5.57;;;16.90;47.50;;;;;;4956684;28;20061;-76
2022/02/28 11:15:19;;;;;;;7.38;4.90;;;16.90;46.60;;;;;;4953091;28;20027;-78
2022/02/28 11:17:46;;;;;;;7.57;4.97;;;17.40;46.90;;;;;;4955118;28;20624;-78
2022/02/28 11:20:15;;;;;;;10.13;5.20;;;17.30;46.20;;;;;;4950519;28;20039;-78
2022/02/28 11:22:44;;;;;;;6.68;4.63;;;17.60;46.10;;;;;;4951780;28;20038;-78
2022/02/28 11:25:12;;;;;;;7.28;4.72;;;17.60;46.90;;;;;;4965851;28;20076;-76
2022/02/28 11:27:39;;;;;;;7.45;4.88;;;18.10;45.10;;;;;;4970784;28;20026;-77
2022/02/28 11:30:09;;;;;;;8.90;5.28;;;18.30;44.80;;;;;;4952518;28;20499;-77
2022/02/28 11:32:36;;;;;;;7.15;4.80;;;18.10;43.90;;;;;;4969226;28;20035;-77
2022/02/28 11:35:39;;;;;;;8.45;5.00;;;18.00;45.50;;;;;;4969266;28;20098;-78
2022/02/28 11:38:15;;;;;;;8.27;5.57;;;18.50;42.60;;;;;;4971400;28;20376;-77
2022/02/28 11:40:45;;;;;;;8.15;5.03;;;18.60;42.90;;;;;;4971085;28;20110;-77
2022/02/28 11:43:13;;;;;;;8.68;5.60;;;18.10;44.40;;;;;;4973573;28;20423;-77
2022/02/28 11:45:52;;;;;;;8.98;5.40;;;17.80;44.30;;;;;;4956086;28;20031;-77
2022/02/28 11:48:34;;;;;;;8.50;5.55;;;17.90;44.80;;;;;;4967499;28;20045;-77
2022/02/28 11:51:02;;;;;;;9.18;6.20;;;18.90;45.20;;;;;;4968767;28;20390;-77
2022/02/28 11:53:55;;;;;;;21.10;14.48;;;18.10;42.90;;;;;;4969418;28;20022;-77
2022/02/28 11:56:24;;;;;;;11.80;6.20;;;18.10;43.20;;;;;;4971064;28;20026;-77
2022/02/28 11:59:04;;;;;;;9.10;6.20;;;17.80;44.90;;;;;;4972031;28;20030;-77
2022/02/28 12:01:38;;;;;;;10.40;6.57;;;17.80;44.10;;;;;;4971062;28;20028;-77
2022/02/28 12:04:06;;;;;;;9.00;5.95;;;17.40;45.80;;;;;;4972289;28;20094;-77
2022/02/28 12:07:10;;;;;;;9.50;5.82;;;17.60;46.30;;;;;;4972606;28;20418;-77
2022/02/28 12:09:40;;;;;;;9.63;6.38;;;17.90;44.80;;;;;;4967539;28;20023;-76
2022/02/28 12:12:28;;;;;;;8.77;6.65;;;18.60;45.20;;;;;;4951616;28;20423;-77
2022/02/28 12:15:00;;;;;;;9.45;6.10;;;18.70;44.20;;;;;;4972348;28;20038;-77
2022/02/28 12:17:31;;;;;;;10.02;6.75;;;18.20;43.20;;;;;;4962202;28;20042;-76
2022/02/28 12:20:22;;;;;;;9.90;6.40;;;18.10;43.90;;;;;;4951945;28;20039;-77
2022/02/28 12:23:09;;;;;;;11.70;5.88;;;18.40;43.10;;;;;;4965280;28;20035;-77
2022/02/28 12:25:52;;;;;;;10.82;7.45;;;18.40;42.80;;;;;;4954211;28;20100;-76
2022/02/28 12:28:34;;;;;;;9.90;7.35;;;18.40;42.10;;;;;;4970960;28;20023;-76
2022/02/28 12:31:08;;;;;;;12.25;6.60;;;18.40;42.50;;;;;;4970163;28;20031;-76
2022/02/28 12:33:34;;;;;;;11.55;7.25;;;18.10;42.50;;;;;;4972111;28;20029;-76
2022/02/28 12:36:00;;;;;;;11.80;6.82;;;18.50;43.90;;;;;;4972071;28;20019;-77
2022/02/28 12:38:28;;;;;;;12.38;6.93;;;18.50;43.50;;;;;;4954413;28;20399;-77
2022/02/28 12:40:56;;;;;;;11.05;6.40;;;18.20;43.60;;;;;;4967797;28;20510;-76
2022/02/28 12:43:24;;;;;;;11.50;7.38;;;18.70;42.80;;;;;;4968683;28;20026;-76
2022/02/28 12:45:52;;;;;;;11.70;7.70;;;18.60;43.10;;;;;;4971825;28;20030;-76